createdAt,value
2019-04-21T00:00:39.694Z,11.80
2019-04-21T00:03:09.918Z,17.13
2019-04-21T00:05:55.860Z,12.17
2019-04-21T00:08:37.074Z,12.53
2019-04-21T00:10:54.013Z,11.80
2019-04-21T00:13:12.017Z,15.67
2019-04-21T00:15:34.513Z,13.17
2019-04-21T00:17:57.050Z,12.27
2019-04-21T00:20:35.283Z,12.18
2019-04-21T00:23:10.220Z,10.87
2019-04-21T00:25:34.852Z,12.73
2019-04-21T00:28:09.222Z,13.63
2019-04-21T00:30:42.469Z,14.43
2019-04-21T00:32:53.971Z,14.73
2019-04-21T00:35:15.917Z,14.38
2019-04-21T00:38:00.346Z,15.25
2019-04-21T00:40:27.765Z,15.32
2019-04-21T00:42:52.469Z,19.50
2019-04-21T00:45:16.823Z,19.57
2019-04-21T00:47:48.043Z,15.73
2019-04-21T00:50:17.913Z,15.07
2019-04-21T00:52:57.597Z,13.95
2019-04-21T00:55:27.674Z,18.30
2019-04-21T00:57:45.466Z,13.77
2019-04-21T01:00:16.135Z,15.00
2019-04-21T01:02:46.819Z,16.15
2019-04-21T01:05:11.159Z,16.37
2019-04-21T01:07:31.517Z,16.00
2019-04-21T01:09:53.973Z,16.07
2019-04-21T01:12:25.473Z,20.27
2019-04-21T01:15:04.915Z,18.83
2019-04-21T01:17:25.807Z,16.40
2019-04-21T01:19:47.075Z,17.43
2019-04-21T01:21:57.271Z,18.00
2019-04-21T01:24:31.892Z,19.92
2019-04-21T01:27:01.029Z,17.08
2019-04-21T01:29:41.395Z,20.17
2019-04-21T01:32:12.882Z,15.15
2019-04-21T01:34:39.192Z,16.35
2019-04-21T01:36:58.859Z,18.00
2019-04-21T01:39:34.517Z,17.33
2019-04-21T01:41:58.827Z,16.43
2019-04-21T01:44:29.797Z,16.67
2019-04-21T01:46:49.330Z,22.47
2019-04-21T01:49:13.057Z,20.60
2019-04-21T01:51:59.333Z,20.55
2019-04-21T01:54:22.029Z,21.83
2019-04-21T01:56:51.346Z,19.77
2019-04-21T01:59:06.883Z,19.20
2019-04-21T02:01:46.062Z,17.10
2019-04-21T02:04:13.808Z,18.27
2019-04-21T02:06:45.585Z,20.10
2019-04-21T02:09:10.152Z,22.60
2019-04-21T02:11:43.233Z,19.77
2019-04-21T02:14:29.886Z,22.17
2019-04-21T02:16:34.518Z,19.47
2019-04-21T02:18:58.876Z,21.05
2019-04-21T02:21:24.495Z,26.30
2019-04-21T02:23:58.739Z,27.62
2019-04-21T02:26:31.570Z,21.37
2019-04-21T02:28:57.479Z,21.75
2019-04-21T02:31:37.617Z,20.80
2019-04-21T02:41:21.473Z,25.98
2019-04-21T02:43:52.457Z,28.38
2019-04-21T02:46:23.867Z,24.63
2019-04-21T02:48:50.870Z,25.23
2019-04-21T02:51:17.506Z,31.73
2019-04-21T02:54:03.793Z,31.13
2019-04-21T02:56:11.662Z,27.47
2019-04-21T02:58:44.036Z,31.63
2019-04-21T03:01:23.879Z,27.13
2019-04-21T03:06:32.968Z,23.10
2019-04-21T03:08:58.805Z,24.73
2019-04-21T03:11:35.021Z,25.00
2019-04-21T03:13:58.025Z,25.47
2019-04-21T03:16:23.551Z,20.37
2019-04-21T03:18:54.643Z,23.15
2019-04-21T03:21:16.309Z,26.43
2019-04-21T03:26:20.501Z,26.93
2019-04-21T03:28:36.887Z,27.53
2019-04-21T03:36:38.454Z,45.90
2019-04-21T03:38:38.491Z,48.10
2019-04-21T03:40:57.750Z,45.23
2019-04-21T03:48:27.038Z,50.92
2019-04-21T03:50:59.009Z,33.28
2019-04-21T03:53:18.609Z,32.10
2019-04-21T03:55:53.174Z,32.23
2019-04-21T03:58:28.071Z,41.17
2019-04-21T04:01:02.788Z,25.57
2019-04-21T04:08:57.579Z,29.93
2019-04-21T04:11:19.681Z,28.98
2019-04-21T04:16:10.165Z,28.50
2019-04-21T04:18:46.745Z,30.93
2019-04-21T04:21:13.036Z,30.00
2019-04-21T04:23:41.682Z,26.03
2019-04-21T04:26:00.357Z,25.70
2019-04-21T04:28:39.846Z,29.03
2019-04-21T04:30:52.425Z,27.63
2019-04-21T04:33:34.405Z,24.73
2019-04-21T04:36:05.934Z,26.77
2019-04-21T04:38:22.360Z,26.33
2019-04-21T04:40:59.806Z,24.90
2019-04-21T04:48:13.591Z,23.27
2019-04-21T04:53:13.594Z,24.92
2019-04-21T04:55:41.010Z,26.03
2019-04-21T04:58:22.179Z,30.47
2019-04-21T05:00:35.004Z,29.87
2019-04-21T05:02:56.023Z,26.80
2019-04-21T05:07:57.299Z,30.47
2019-04-21T05:10:31.103Z,29.57
2019-04-21T05:12:50.976Z,23.73
2019-04-21T05:15:12.639Z,29.52
2019-04-21T05:17:48.509Z,25.17
2019-04-21T05:20:11.590Z,26.33
2019-04-21T05:22:35.518Z,25.03
2019-04-21T05:24:56.624Z,29.33
2019-04-21T05:27:25.638Z,25.93
2019-04-21T05:30:00.003Z,24.23
2019-04-21T05:32:36.095Z,25.75
2019-04-21T05:34:56.953Z,25.20
2019-04-21T05:37:25.765Z,31.03
2019-04-21T05:39:53.143Z,24.50
2019-04-21T05:42:11.022Z,25.23
2019-04-21T05:44:58.776Z,25.23
2019-04-21T05:49:46.645Z,23.17
2019-04-21T05:52:08.152Z,24.90
2019-04-21T05:54:53.055Z,23.87
2019-04-21T05:57:09.926Z,27.40
2019-04-21T05:59:51.541Z,26.53
2019-04-21T06:02:16.600Z,25.50
2019-04-21T06:04:54.782Z,22.17
2019-04-21T06:07:13.968Z,22.75
2019-04-21T06:09:39.972Z,22.47
2019-04-21T06:11:56.721Z,25.27
2019-04-21T06:14:29.404Z,21.43
2019-04-21T06:16:55.667Z,25.67
2019-04-21T06:19:31.167Z,21.43
2019-04-21T06:21:44.787Z,22.37
2019-04-21T06:24:15.747Z,20.13
2019-04-21T06:29:14.986Z,23.13
2019-04-21T06:34:08.086Z,22.63
2019-04-21T06:36:42.285Z,20.23
2019-04-21T06:44:03.024Z,24.23
2019-04-21T06:46:44.815Z,23.93
2019-04-21T06:49:01.289Z,21.17
2019-04-21T06:51:27.305Z,24.53
2019-04-21T06:53:59.339Z,21.27
2019-04-21T06:56:27.129Z,23.12
2019-04-21T06:58:42.833Z,23.37
2019-04-21T07:01:21.631Z,21.65
2019-04-21T07:03:48.667Z,21.83
2019-04-21T07:06:12.591Z,21.77
2019-04-21T07:08:44.691Z,22.30
2019-04-21T07:11:03.965Z,20.17
2019-04-21T07:13:30.964Z,19.07
2019-04-21T07:16:05.585Z,18.93
2019-04-21T07:18:29.801Z,19.93
2019-04-21T07:20:53.181Z,16.40
2019-04-21T07:23:26.202Z,16.73
2019-04-21T07:25:51.423Z,17.37
2019-04-21T07:28:22.006Z,15.73
2019-04-21T07:30:45.330Z,15.07
2019-04-21T07:33:33.583Z,16.77
2019-04-21T07:35:38.377Z,18.90
2019-04-21T07:38:04.378Z,16.60
2019-04-21T07:40:29.058Z,19.30
2019-04-21T07:42:59.081Z,18.20
2019-04-21T07:45:22.458Z,17.25
2019-04-21T07:47:59.269Z,15.97
2019-04-21T07:50:33.165Z,15.17
2019-04-21T07:53:05.203Z,17.83
2019-04-21T07:57:47.492Z,14.77
2019-04-21T08:02:49.699Z,14.75
2019-04-21T08:07:53.808Z,14.03
2019-04-21T08:10:10.507Z,16.00
2019-04-21T08:12:36.318Z,17.70
2019-04-21T08:15:18.102Z,14.13
2019-04-21T08:17:38.316Z,13.25
2019-04-21T08:19:59.081Z,12.75
2019-04-21T08:22:33.490Z,16.10
2019-04-21T08:24:59.393Z,14.40
2019-04-21T08:27:32.397Z,13.83
2019-04-21T08:29:52.170Z,42.30
2019-04-21T08:32:28.325Z,18.05
2019-04-21T08:34:54.876Z,12.00
2019-04-21T08:37:18.190Z,12.13
2019-04-21T08:39:59.707Z,16.17
2019-04-21T08:42:13.206Z,10.88
2019-04-21T08:44:45.204Z,11.70
2019-04-21T08:47:14.141Z,12.05
2019-04-21T08:49:39.261Z,10.73
2019-04-21T08:52:34.675Z,11.93
2019-04-21T08:54:32.689Z,14.30
2019-04-21T08:57:10.404Z,14.83
2019-04-21T08:59:50.674Z,10.07
2019-04-21T09:02:23.634Z,10.63
2019-04-21T09:04:50.820Z,11.80
2019-04-21T09:07:22.723Z,19.85
2019-04-21T09:09:44.439Z,10.87
2019-04-21T09:12:10.580Z,17.33
2019-04-21T09:14:39.549Z,8.70
2019-04-21T09:17:00.459Z,8.73
2019-04-21T09:19:44.327Z,9.67
2019-04-21T09:22:02.358Z,8.60
2019-04-21T09:24:26.692Z,8.63
2019-04-21T09:26:51.410Z,7.97
2019-04-21T09:29:16.034Z,9.50
2019-04-21T09:31:39.203Z,8.15
2019-04-21T09:34:03.206Z,8.53
2019-04-21T09:36:36.205Z,9.48
2019-04-21T09:39:00.051Z,7.67
2019-04-21T09:41:25.532Z,8.47
2019-04-21T09:43:53.662Z,8.03
2019-04-21T09:46:18.542Z,8.80
2019-04-21T09:48:53.791Z,7.47
2019-04-21T09:51:13.114Z,8.20
2019-04-21T09:53:42.225Z,9.30
2019-04-21T09:56:11.765Z,12.37
2019-04-21T09:58:40.720Z,10.97
2019-04-21T10:01:12.313Z,11.02
2019-04-21T10:03:39.625Z,13.70
2019-04-21T10:05:58.732Z,7.80
2019-04-21T10:08:25.535Z,8.57
2019-04-21T10:10:53.029Z,8.47
2019-04-21T10:13:23.057Z,8.37
2019-04-21T10:15:51.911Z,10.20
2019-04-21T10:18:21.527Z,7.27
2019-04-21T10:20:49.044Z,8.43
2019-04-21T10:23:15.626Z,7.77
2019-04-21T10:25:43.322Z,8.20
2019-04-21T10:28:11.007Z,7.43
2019-04-21T10:30:38.545Z,8.00
2019-04-21T10:33:06.178Z,8.97
2019-04-21T10:35:33.532Z,7.40
2019-04-21T10:38:12.913Z,8.03
2019-04-21T10:40:32.042Z,7.17
2019-04-21T10:42:56.397Z,28.40
2019-04-21T10:45:25.107Z,6.30
2019-04-21T10:47:52.705Z,7.17
2019-04-21T10:50:18.830Z,7.80
2019-04-21T10:52:53.152Z,8.37
2019-04-21T10:55:36.710Z,7.60
2019-04-21T10:57:52.717Z,8.10
2019-04-21T11:00:20.059Z,7.93
2019-04-21T11:02:48.711Z,8.50
2019-04-21T11:05:16.478Z,8.87
2019-04-21T11:07:55.222Z,10.13
2019-04-21T11:10:14.049Z,11.12
2019-04-21T11:12:41.400Z,13.90
2019-04-21T11:15:09.293Z,9.80
2019-04-21T11:17:36.455Z,9.10
2019-04-21T11:20:04.569Z,19.67
2019-04-21T11:22:34.943Z,8.27
2019-04-21T11:25:00.989Z,8.20
2019-04-21T11:27:28.851Z,7.17
2019-04-21T11:29:56.058Z,11.27
2019-04-21T11:32:23.651Z,10.20
2019-04-21T11:34:51.517Z,15.00
2019-04-21T11:37:19.847Z,16.73
2019-04-21T11:39:55.036Z,8.87
2019-04-21T11:42:15.609Z,12.77
2019-04-21T11:44:42.094Z,7.70
2019-04-21T11:47:10.292Z,11.00
2019-04-21T11:49:37.155Z,12.57
2019-04-21T11:52:04.916Z,8.80
2019-04-21T11:54:32.913Z,9.03
2019-04-21T11:57:03.077Z,9.70
2019-04-21T11:59:27.983Z,8.77
2019-04-21T12:01:54.920Z,9.17
2019-04-21T12:04:23.459Z,16.17
2019-04-21T12:06:52.183Z,8.70
2019-04-21T12:09:18.846Z,9.00
2019-04-21T12:11:45.391Z,8.80
2019-04-21T12:14:12.630Z,8.18
2019-04-21T12:16:41.249Z,10.40
2019-04-21T12:19:09.182Z,12.70
2019-04-21T12:21:50.514Z,12.03
2019-04-21T12:24:03.607Z,8.13
2019-04-21T12:26:31.966Z,12.84
2019-04-21T12:28:59.698Z,10.73
2019-04-21T12:31:43.786Z,9.30
2019-04-21T12:34:12.103Z,26.62
2019-04-21T12:36:39.965Z,9.32
2019-04-21T12:39:08.403Z,13.10
2019-04-21T12:41:34.315Z,13.23
2019-04-21T12:44:02.647Z,7.85
2019-04-21T12:46:30.086Z,18.65
2019-04-21T12:48:58.063Z,7.97
2019-04-21T12:51:25.999Z,7.97
2019-04-21T12:53:54.325Z,7.47
2019-04-21T12:56:23.290Z,10.13
2019-04-21T12:58:49.607Z,8.87
2019-04-21T13:01:17.150Z,7.27
2019-04-21T13:03:45.828Z,7.45
2019-04-21T13:06:13.905Z,20.23
2019-04-21T13:08:51.857Z,12.77
2019-04-21T13:11:09.701Z,7.93
2019-04-21T13:13:35.765Z,13.40
2019-04-21T13:16:03.317Z,7.33
2019-04-21T13:18:31.265Z,8.38
2019-04-21T13:21:00.750Z,7.90
2019-04-21T13:23:27.146Z,7.50
2019-04-21T13:25:55.988Z,10.63
2019-04-21T13:28:22.910Z,7.40
2019-04-21T13:30:50.673Z,15.45
2019-04-21T13:33:17.234Z,7.50
2019-04-21T13:35:44.864Z,7.60
2019-04-21T13:38:24.246Z,13.13
2019-04-21T13:40:58.311Z,11.13
2019-04-21T13:43:10.731Z,11.07
2019-04-21T13:45:37.494Z,18.00
2019-04-21T13:48:06.459Z,8.40
2019-04-21T13:50:33.414Z,19.37
2019-04-21T13:53:00.917Z,10.73
2019-04-21T13:55:29.714Z,7.73
2019-04-21T13:57:56.892Z,7.80
2019-04-21T14:00:24.280Z,22.37
2019-04-21T14:02:52.504Z,11.48
2019-04-21T14:05:20.294Z,8.47
2019-04-21T14:07:48.054Z,8.37
2019-04-21T14:10:16.076Z,9.62
2019-04-21T14:12:42.845Z,10.57
2019-04-21T14:15:10.399Z,11.60
2019-04-21T14:17:39.118Z,8.10
2019-04-21T14:20:05.401Z,10.33
2019-04-21T14:22:33.978Z,8.30
2019-04-21T14:25:03.687Z,9.23
2019-04-21T14:27:30.330Z,8.93
2019-04-21T14:29:57.809Z,12.50
2019-04-21T14:32:26.537Z,8.23
2019-04-21T14:34:54.055Z,16.83
2019-04-21T14:37:20.516Z,8.53
2019-04-21T14:39:55.888Z,8.03
2019-04-21T14:42:16.010Z,8.03
2019-04-21T14:44:42.970Z,14.17
2019-04-21T14:47:16.119Z,31.50
2019-04-21T14:49:44.973Z,42.00
2019-04-21T14:52:16.636Z,12.50
2019-04-21T14:54:47.001Z,8.00
2019-04-21T14:57:15.544Z,11.53
2019-04-21T14:59:42.840Z,7.37
2019-04-21T15:02:09.895Z,7.43
2019-04-21T15:04:37.702Z,8.23
2019-04-21T15:07:05.579Z,7.60
2019-04-21T15:09:35.595Z,7.33
2019-04-21T15:12:00.313Z,7.93
2019-04-21T15:14:27.773Z,10.93
2019-04-21T15:16:56.729Z,8.63
2019-04-21T15:19:22.792Z,9.63
2019-04-21T15:21:50.350Z,6.97
2019-04-21T15:24:18.352Z,9.57
2019-04-21T15:26:46.432Z,7.62
2019-04-21T15:29:12.957Z,11.38
2019-04-21T15:31:43.118Z,7.62
2019-04-21T15:34:07.950Z,10.20
2019-04-21T15:36:35.644Z,8.23
2019-04-21T15:39:03.604Z,6.97
2019-04-21T15:41:30.713Z,14.57
2019-04-21T15:44:01.028Z,6.73
2019-04-21T15:46:26.780Z,15.48
2019-04-21T15:48:53.463Z,6.53
2019-04-21T15:51:21.971Z,8.70
2019-04-21T15:53:49.814Z,16.20
2019-04-21T15:56:31.043Z,7.00
2019-04-21T15:58:58.981Z,6.37
2019-04-21T16:01:28.278Z,6.50
2019-04-21T16:03:58.668Z,9.23
2019-04-21T16:06:23.426Z,8.23
2019-04-21T16:08:53.824Z,30.48
2019-04-21T16:11:18.160Z,7.93
2019-04-21T16:13:45.905Z,6.87
2019-04-21T16:16:14.560Z,6.30
2019-04-21T16:18:40.640Z,15.60
2019-04-21T16:21:08.271Z,17.40
2019-04-21T16:23:36.182Z,82.37
2019-04-21T16:26:04.388Z,9.77
2019-04-21T16:28:31.163Z,7.53
2019-04-21T16:30:58.495Z,6.30
2019-04-21T16:33:27.052Z,6.30
2019-04-21T16:35:53.753Z,6.57
2019-04-21T16:38:21.639Z,6.33
2019-04-21T16:40:55.611Z,6.40
2019-04-21T16:43:16.337Z,5.80
2019-04-21T16:45:44.446Z,6.27
2019-04-21T16:48:10.906Z,6.00
2019-04-21T16:50:39.495Z,5.83
2019-04-21T16:53:08.152Z,6.20
2019-04-21T16:55:37.155Z,13.83
2019-04-21T16:58:23.097Z,6.40
2019-04-21T17:01:02.720Z,11.03
2019-04-21T17:03:24.341Z,6.97
2019-04-21T17:05:51.806Z,13.03
2019-04-21T17:08:19.767Z,7.57
2019-04-21T17:11:00.149Z,39.93
2019-04-21T17:13:13.997Z,8.77
2019-04-21T17:15:55.477Z,53.00
2019-04-21T17:18:25.574Z,6.73
2019-04-21T17:20:45.045Z,6.07
2019-04-21T17:23:04.020Z,15.17
2019-04-21T17:25:32.077Z,6.00
2019-04-21T17:27:58.775Z,23.53
2019-04-21T17:30:28.353Z,12.37
2019-04-21T17:32:55.467Z,6.43
2019-04-21T17:35:22.779Z,6.80
2019-04-21T17:37:50.084Z,7.93
2019-04-21T17:40:24.088Z,7.60
2019-04-21T17:42:56.683Z,6.10
2019-04-21T17:45:19.274Z,6.30
2019-04-21T17:47:52.447Z,6.23
2019-04-21T17:50:17.791Z,10.85
2019-04-21T17:52:55.536Z,5.90
2019-04-21T17:55:27.522Z,19.27
2019-04-21T17:58:03.362Z,6.73
2019-04-21T18:00:57.433Z,8.18
2019-04-21T18:03:01.939Z,8.17
2019-04-21T18:05:32.144Z,6.00
2019-04-21T18:07:54.833Z,6.82
2019-04-21T18:10:24.655Z,6.03
2019-04-21T18:12:43.562Z,5.67
2019-04-21T18:15:18.115Z,10.43
2019-04-21T18:17:28.724Z,5.87
2019-04-21T18:19:57.119Z,5.97
2019-04-21T18:22:44.310Z,6.20
2019-04-21T18:25:12.586Z,6.63
2019-04-21T18:27:36.609Z,5.97
2019-04-21T18:30:04.261Z,7.83
2019-04-21T18:32:35.346Z,5.40
2019-04-21T18:35:14.176Z,6.27
2019-04-21T18:38:04.551Z,5.53
2019-04-21T18:40:29.673Z,5.50
2019-04-21T18:43:30.876Z,8.07
2019-04-21T18:48:04.968Z,8.05
2019-04-21T18:50:47.820Z,9.77
2019-04-21T18:53:23.924Z,6.05
2019-04-21T18:55:46.696Z,8.00
2019-04-21T18:58:11.841Z,14.77
2019-04-21T19:00:39.802Z,7.60
2019-04-21T19:03:04.178Z,7.10
2019-04-21T19:05:32.260Z,6.47
2019-04-21T19:08:14.740Z,6.10
2019-04-21T19:10:47.743Z,17.23
2019-04-21T19:13:38.065Z,13.87
2019-04-21T19:15:41.373Z,8.67
2019-04-21T19:18:35.698Z,12.10
2019-04-21T19:20:34.900Z,9.83
2019-04-21T19:23:06.822Z,65.50
2019-04-21T19:25:31.521Z,45.57
2019-04-21T19:27:59.027Z,32.87
2019-04-21T19:30:38.511Z,13.80
2019-04-21T19:32:58.057Z,11.97
2019-04-21T19:35:09.353Z,9.77
2019-04-21T19:37:45.192Z,17.33
2019-04-21T19:40:18.020Z,8.57
2019-04-21T19:42:39.979Z,7.45
2019-04-21T19:45:19.247Z,8.90
2019-04-21T19:47:50.425Z,7.40
2019-04-21T19:50:19.398Z,7.73
2019-04-21T19:52:33.110Z,8.65
2019-04-21T19:54:52.579Z,11.70
2019-04-21T19:57:20.911Z,10.83
2019-04-21T19:59:53.223Z,10.37
2019-04-21T20:02:18.614Z,10.80
2019-04-21T20:04:53.456Z,8.70
2019-04-21T20:07:26.258Z,9.20
2019-04-21T20:10:03.494Z,8.98
2019-04-21T20:12:38.169Z,9.50
2019-04-21T20:14:59.368Z,11.57
2019-04-21T20:17:17.641Z,13.73
2019-04-21T20:19:32.314Z,14.20
2019-04-21T20:22:00.923Z,13.00
2019-04-21T20:24:30.261Z,11.77
2019-04-21T20:27:03.534Z,11.63
2019-04-21T20:29:46.960Z,20.93
2019-04-21T20:32:08.361Z,13.17
2019-04-21T20:34:40.014Z,16.13
2019-04-21T20:37:02.083Z,12.63
2019-04-21T20:39:19.352Z,13.07
2019-04-21T20:41:54.042Z,12.67
2019-04-21T20:44:28.206Z,15.03
2019-04-21T20:46:49.337Z,13.70
2019-04-21T20:49:15.416Z,14.17
2019-04-21T20:51:54.351Z,14.23
2019-04-21T20:54:17.315Z,19.00
2019-04-21T20:56:45.174Z,15.07
2019-04-21T20:59:12.104Z,14.43
2019-04-21T21:01:55.392Z,16.15
2019-04-21T21:04:07.419Z,29.27
2019-04-21T21:06:36.155Z,17.90
2019-04-21T21:09:04.790Z,14.18
2019-04-21T21:14:17.621Z,16.40
2019-04-21T21:17:31.721Z,18.50
2019-04-21T21:19:35.134Z,17.77
2019-04-21T21:21:56.357Z,16.08
2019-04-21T21:24:46.126Z,19.25
2019-04-21T21:27:10.326Z,20.20
2019-04-21T21:29:41.791Z,19.67
2019-04-21T21:32:16.233Z,21.67
2019-04-21T21:34:45.388Z,22.83
2019-04-21T21:37:21.658Z,20.30
2019-04-21T21:42:13.421Z,17.17
2019-04-21T21:44:49.567Z,21.83
2019-04-21T21:47:31.909Z,20.27
2019-04-21T21:49:58.183Z,20.50
2019-04-21T21:52:36.749Z,20.70
2019-04-21T21:54:51.929Z,20.10
2019-04-21T21:57:28.429Z,21.17
2019-04-21T22:00:12.345Z,24.63
2019-04-21T22:02:47.670Z,21.67
2019-04-21T22:05:22.035Z,20.67
2019-04-21T22:07:49.316Z,22.33
2019-04-21T22:10:20.181Z,23.07
2019-04-21T22:13:00.756Z,21.27
2019-04-21T22:15:26.775Z,26.28
2019-04-21T22:18:15.046Z,20.37
2019-04-21T22:20:42.147Z,20.90
2019-04-21T22:23:08.758Z,22.45
2019-04-21T22:28:07.441Z,21.07
2019-04-21T22:33:17.738Z,23.87
2019-04-21T22:35:50.411Z,25.40
2019-04-21T22:41:10.627Z,20.90
2019-04-21T22:43:43.902Z,21.97
2019-04-21T22:46:15.333Z,24.97
2019-04-21T22:48:51.738Z,21.67
2019-04-21T22:51:26.603Z,21.07
2019-04-21T22:53:55.487Z,23.66
2019-04-21T23:01:47.463Z,20.73
2019-04-21T23:04:12.414Z,21.30
2019-04-21T23:09:24.546Z,19.40
2019-04-21T23:12:00.004Z,18.37
2019-04-21T23:14:32.473Z,21.52
2019-04-21T23:17:29.803Z,19.60
2019-04-21T23:20:10.246Z,20.33
2019-04-21T23:22:59.662Z,20.92
2019-04-21T23:25:22.278Z,22.20
2019-04-21T23:27:56.408Z,22.20
2019-04-21T23:30:33.568Z,29.10
2019-04-21T23:32:51.404Z,22.20
2019-04-21T23:35:24.927Z,21.03
2019-04-21T23:37:55.723Z,22.87
2019-04-21T23:40:25.258Z,20.77
2019-04-21T23:45:39.233Z,20.33
2019-04-21T23:48:23.524Z,17.52
2019-04-21T23:50:46.627Z,17.27
2019-04-21T23:53:15.494Z,18.83
2019-04-21T23:55:50.679Z,16.37
2019-04-21T23:58:26.403Z,16.42
